| time (UTC) | temp C | wind direction | speed KPH | gust KPH | rain 1hr cm | rain 24hr cm | rain mn cm | humidity % | barometer mb |
| 20260507031539 | 16 | 0 | 0.0 | 0.0 | 0.00 | 0.00 | 0.00 | 61 | 1017.4 |
| 20260507030038 | 16 | 0 | 0.0 | 0.0 | 0.00 | 0.00 | 0.00 | 63 | 1017.1 |
| 20260507024549 | 16 | 0 | 0.0 | 0.0 | 0.00 | 0.00 | 0.00 | 64 | 1017.1 |
| 20260507023044 | 17 | 0 | 0.0 | 0.0 | 0.00 | 0.00 | 0.00 | 64 | 1016.9 |
| 20260507021543 | 18 | 0 | 0.0 | 0.0 | 0.00 | 0.00 | 0.00 | 63 | 1016.9 |
| 20260507020048 | 18 | 0 | 0.0 | 0.0 | 0.00 | 0.00 | 0.00 | 61 | 1016.8 |
| 20260507014538 | 18 | 0 | 0.0 | 0.0 | 0.00 | 0.00 | 0.00 | 59 | 1016.8 |
| 20260507013056 | 19 | 0 | 0.0 | 0.0 | 0.00 | 0.00 | 0.00 | 58 | 1016.7 |
| 20260507011545 | 19 | 0 | 0.0 | 1.6 | 0.00 | 0.00 | 0.00 | 57 | 1016.8 |
| 20260507010045 | 19 | 0 | 0.0 | 11.3 | 0.00 | 0.00 | 0.00 | 57 | 1016.9 |
| 20260507004540 | 20 | 0 | 0.0 | 8.0 | 0.00 | 0.00 | 0.00 | 56 | 1016.8 |
| 20260507003037 | 20 | 0 | 1.6 | 17.7 | 0.00 | 0.00 | 0.00 | 57 | 1016.9 |
| 20260507001541 | 20 | 0 | 0.0 | 4.8 | 0.00 | 0.00 | 0.00 | 56 | 1016.8 |
| 20260507000051 | 20 | 0 | 1.6 | 19.3 | 0.00 | 0.00 | 0.00 | 57 | 1016.8 |
| 20260506234543 | 20 | 0 | 0.0 | 12.9 | 0.00 | 0.00 | 0.00 | 56 | 1016.7 |
| 20260506233042 | 20 | 0 | 0.0 | 12.9 | 0.00 | 0.00 | 0.00 | 56 | 1016.6 |
| 20260506231544 | 21 | 0 | 0.0 | 17.7 | 0.00 | 0.00 | 0.00 | 56 | 1016.7 |
| 20260506230038 | 20 | 0 | 0.0 | 19.3 | 0.00 | 0.00 | 0.00 | 57 | 1016.7 |
| 20260506224544 | 21 | 0 | 1.6 | 14.5 | 0.00 | 0.00 | 0.00 | 56 | 1016.7 |
| 20260506223037 | 21 | 238 | 3.2 | 19.3 | 0.00 | 0.00 | 0.00 | 56 | 1017.1 |
| 20260506221543 | 21 | 0 | 4.8 | 24.1 | 0.00 | 0.00 | 0.00 | 54 | 1017.3 |
| 20260506220038 | 21 | 0 | 1.6 | 17.7 | 0.00 | 0.00 | 0.00 | 53 | 1017.7 |
| 20260506214536 | 20 | 0 | 0.0 | 20.9 | 0.00 | 0.00 | 0.00 | 55 | 1017.8 |
| 20260506213042 | 21 | 250 | 1.6 | 20.9 | 0.00 | 0.00 | 0.00 | 54 | 1017.8 |
| 20260506211538 | 21 | 223 | 0.0 | 20.9 | 0.00 | 0.00 | 0.00 | 53 | 1018.0 |
| 20260506210040 | 21 | 0 | 0.0 | 14.5 | 0.00 | 0.00 | 0.00 | 55 | 1018.0 |
| 20260506204538 | 21 | 0 | 1.6 | 19.3 | 0.00 | 0.00 | 0.00 | 55 | 1018.1 |
| 20260506203037 | 21 | 0 | 1.6 | 19.3 | 0.00 | 0.00 | 0.00 | 55 | 1018.3 |
| 20260506201544 | 21 | 0 | 1.6 | 22.5 | 0.00 | 0.00 | 0.00 | 54 | 1018.5 |
| 20260506200038 | 20 | 0 | 0.0 | 14.5 | 0.00 | 0.00 | 0.00 | 55 | 1018.4 |
| 20260506194550 | 20 | 0 | 4.8 | 22.5 | 0.00 | 0.00 | 0.00 | 55 | 1018.6 |
| 20260506193037 | 21 | 0 | 1.6 | 17.7 | 0.00 | 0.00 | 0.00 | 54 | 1018.5 |
| 20260506191542 | 21 | 0 | 0.0 | 11.3 | 0.00 | 0.00 | 0.00 | 51 | 1018.7 |
| 20260506190044 | 20 | 0 | 0.0 | 14.5 | 0.00 | 0.00 | 0.00 | 50 | 1018.8 |
| 20260506184542 | 20 | 254 | 0.0 | 12.9 | 0.00 | 0.00 | 0.00 | 53 | 1019.0 |
| 20260506183038 | 20 | 0 | 0.0 | 17.7 | 0.00 | 0.00 | 0.00 | 51 | 1019.0 |
| 20260506181545 | 19 | 0 | 0.0 | 17.7 | 0.00 | 0.00 | 0.00 | 53 | 1019.1 |
| 20260506180049 | 18 | 0 | 0.0 | 0.0 | 0.00 | 0.00 | 0.00 | 53 | 1019.2 |
| 20260506174542 | 18 | 0 | 0.0 | 0.0 | 0.00 | 0.00 | 0.00 | 53 | 1019.2 |
| 20260506173037 | 18 | 0 | 0.0 | 0.0 | 0.00 | 0.00 | 0.00 | 54 | 1019.2 |
| 20260506171551 | 17 | 0 | 0.0 | 0.0 | 0.00 | 0.00 | 0.00 | 55 | 1019.2 |
| 20260506170040 | 17 | 0 | 0.0 | 0.0 | 0.00 | 0.00 | 0.00 | 56 | 1019.1 |
| 20260506164543 | 17 | 0 | 0.0 | 0.0 | 0.00 | 0.00 | 0.00 | 57 | 1019.0 |
| 20260506163042 | 17 | 0 | 0.0 | 0.0 | 0.00 | 0.00 | 0.00 | 57 | 1019.0 |
| 20260506161543 | 16 | 0 | 0.0 | 0.0 | 0.00 | 0.00 | 0.00 | 58 | 1019.1 |
| 20260506160042 | 16 | 0 | 0.0 | 0.0 | 0.00 | 0.00 | 0.00 | 58 | 1019.0 |
| 20260506154601 | 16 | 0 | 0.0 | 0.0 | 0.00 | 0.00 | 0.00 | 57 | 1019.0 |
| 20260506153038 | 15 | 0 | 0.0 | 0.0 | 0.00 | 0.00 | 0.00 | 58 | 1019.0 |
| 20260506151538 | 15 | 0 | 0.0 | 0.0 | 0.00 | 0.00 | 0.00 | 58 | 1019.2 |
| 20260506150038 | 13 | 0 | 0.0 | 0.0 | 0.00 | 0.00 | 0.00 | 58 | 1019.1 |
| 20260506144555 | 12 | 0 | 0.0 | 0.0 | 0.00 | 0.00 | 0.00 | 55 | 1019.1 |
| 20260506143041 | 12 | 0 | 0.0 | 0.0 | 0.00 | 0.00 | 0.00 | 46 | 1019.1 |
| 20260506141540 | 10 | 0 | 0.0 | 0.0 | 0.00 | 0.00 | 0.00 | 34 | 1019.1 |
| 20260506140054 | 9 | 0 | 0.0 | 0.0 | 0.00 | 0.00 | 0.00 | 35 | 1018.9 |
| 20260506134538 | 8 | 0 | 0.0 | 0.0 | 0.00 | 0.00 | 0.00 | 35 | 1018.8 |
| 20260506133045 | 8 | 0 | 0.0 | 0.0 | 0.00 | 0.00 | 0.00 | 37 | 1018.9 |
| 20260506131538 | 8 | 0 | 0.0 | 0.0 | 0.00 | 0.00 | 0.00 | 36 | 1018.8 |
| 20260506130044 | 8 | 0 | 0.0 | 0.0 | 0.00 | 0.00 | 0.00 | 35 | 1018.7 |
| 20260506124542 | 8 | 0 | 0.0 | 0.0 | 0.00 | 0.00 | 0.00 | 36 | 1018.6 |
| 20260506123037 | 8 | 0 | 0.0 | 0.0 | 0.00 | 0.00 | 0.00 | 36 | 1018.4 |
| 20260506121538 | 8 | 0 | 0.0 | 0.0 | 0.00 | 0.00 | 0.00 | 36 | 1018.3 |
| 20260506120039 | 8 | 0 | 0.0 | 0.0 | 0.00 | 0.00 | 0.00 | 36 | 1018.3 |
| 20260506114537 | 8 | 0 | 0.0 | 0.0 | 0.00 | 0.00 | 0.00 | 36 | 1018.4 |
| 20260506113049 | 8 | 0 | 0.0 | 0.0 | 0.00 | 0.00 | 0.00 | 35 | 1018.3 |
| 20260506111542 | 9 | 0 | 0.0 | 0.0 | 0.00 | 0.00 | 0.00 | 34 | 1018.3 |
| 20260506110039 | 9 | 0 | 0.0 | 0.0 | 0.00 | 0.00 | 0.00 | 34 | 1018.2 |
| 20260506104545 | 9 | 0 | 0.0 | 0.0 | 0.00 | 0.00 | 0.00 | 33 | 1018.1 |
| 20260506103041 | 9 | 0 | 0.0 | 0.0 | 0.00 | 0.00 | 0.00 | 35 | 1018.2 |
| 20260506101546 | 8 | 0 | 0.0 | 0.0 | 0.00 | 0.00 | 0.00 | 36 | 1018.2 |
| 20260506100043 | 9 | 0 | 0.0 | 0.0 | 0.00 | 0.00 | 0.00 | 37 | 1018.3 |
| 20260506094541 | 9 | 0 | 0.0 | 0.0 | 0.00 | 0.00 | 0.00 | 36 | 1018.5 |
| 20260506093037 | 9 | 0 | 0.0 | 0.0 | 0.00 | 0.00 | 0.00 | 36 | 1018.5 |
| 20260506091537 | 9 | 0 | 0.0 | 0.0 | 0.00 | 0.00 | 0.00 | 38 | 1018.5 |
| 20260506090036 | 9 | 0 | 0.0 | 0.0 | 0.00 | 0.00 | 0.00 | 38 | 1018.7 |
| 20260506084541 | 10 | 0 | 0.0 | 0.0 | 0.00 | 0.00 | 0.00 | 40 | 1018.5 |
| 20260506083044 | 10 | 0 | 0.0 | 0.0 | 0.00 | 0.00 | 0.00 | 40 | 1018.7 |
| 20260506081540 | 10 | 0 | 0.0 | 0.0 | 0.00 | 0.00 | 0.00 | 40 | 1018.7 |
| 20260506073038 | 11 | 0 | 0.0 | 0.0 | 0.00 | 0.00 | 0.00 | 40 | 1018.7 |
| 20260506071544 | 11 | 0 | 0.0 | 0.0 | 0.00 | 0.00 | 0.00 | 40 | 1018.6 |
| 20260506061537 | 11 | 0 | 0.0 | 0.0 | 0.00 | 0.00 | 0.00 | 43 | 1017.8 |
| 20260506044539 | 12 | 0 | 0.0 | 0.0 | 0.00 | 0.00 | 0.00 | 53 | 1017.4 |
| 20260506043037 | 13 | 0 | 0.0 | 0.0 | 0.00 | 0.00 | 0.00 | 55 | 1017.3 |
| 20260506041545 | 13 | 0 | 0.0 | 0.0 | 0.00 | 0.00 | 0.00 | 57 | 1017.0 |
| 20260506040042 | 13 | 0 | 0.0 | 0.0 | 0.00 | 0.00 | 0.00 | 59 | 1016.7 |
| 20260506034539 | 14 | 0 | 0.0 | 0.0 | 0.00 | 0.00 | 0.00 | 61 | 1016.5 |
| 20260506033045 | 14 | 0 | 0.0 | 0.0 | 0.00 | 0.00 | 0.00 | 61 | 1016.4 |